sensor_id;sensor_type;location;lat;lon;timestamp;temperature;humidity
36352;DHT22;22382;44.768;17.206;2024-02-23T00:01:51;14.80;61.50
36352;DHT22;22382;44.768;17.206;2024-02-23T00:04:18;14.80;61.80
36352;DHT22;22382;44.768;17.206;2024-02-23T00:06:46;14.80;61.40
36352;DHT22;22382;44.768;17.206;2024-02-23T00:09:13;14.80;61.20
36352;DHT22;22382;44.768;17.206;2024-02-23T00:11:41;14.80;61.40
36352;DHT22;22382;44.768;17.206;2024-02-23T00:14:12;14.90;61.00
36352;DHT22;22382;44.768;17.206;2024-02-23T00:16:40;14.90;60.80
36352;DHT22;22382;44.768;17.206;2024-02-23T00:19:08;14.90;60.70
36352;DHT22;22382;44.768;17.206;2024-02-23T00:21:38;14.90;60.30
36352;DHT22;22382;44.768;17.206;2024-02-23T00:24:07;15.00;60.00
36352;DHT22;22382;44.768;17.206;2024-02-23T00:26:35;15.00;60.20
36352;DHT22;22382;44.768;17.206;2024-02-23T00:29:02;14.90;60.00
36352;DHT22;22382;44.768;17.206;2024-02-23T00:31:30;14.90;60.10
36352;DHT22;22382;44.768;17.206;2024-02-23T00:33:57;14.90;60.20
36352;DHT22;22382;44.768;17.206;2024-02-23T00:36:25;14.90;60.20
36352;DHT22;22382;44.768;17.206;2024-02-23T00:38:52;14.90;59.60
36352;DHT22;22382;44.768;17.206;2024-02-23T00:41:19;14.90;59.20
36352;DHT22;22382;44.768;17.206;2024-02-23T00:43:46;15.00;58.70
36352;DHT22;22382;44.768;17.206;2024-02-23T00:46:14;14.90;58.80
36352;DHT22;22382;44.768;17.206;2024-02-23T00:48:43;14.90;59.20
36352;DHT22;22382;44.768;17.206;2024-02-23T00:51:10;14.90;58.90
36352;DHT22;22382;44.768;17.206;2024-02-23T00:53:37;14.90;58.50
36352;DHT22;22382;44.768;17.206;2024-02-23T00:56:05;14.90;58.90
36352;DHT22;22382;44.768;17.206;2024-02-23T00:58:32;14.80;59.00
36352;DHT22;22382;44.768;17.206;2024-02-23T01:01:00;14.90;58.80
36352;DHT22;22382;44.768;17.206;2024-02-23T01:03:27;14.80;59.10
36352;DHT22;22382;44.768;17.206;2024-02-23T01:05:55;14.90;59.10
36352;DHT22;22382;44.768;17.206;2024-02-23T01:08:22;14.80;58.90
36352;DHT22;22382;44.768;17.206;2024-02-23T01:10:49;14.80;59.20
36352;DHT22;22382;44.768;17.206;2024-02-23T01:13:17;14.80;59.30
36352;DHT22;22382;44.768;17.206;2024-02-23T01:15:44;14.80;59.60
36352;DHT22;22382;44.768;17.206;2024-02-23T01:18:11;14.80;59.80
36352;DHT22;22382;44.768;17.206;2024-02-23T01:20:39;14.70;60.00
36352;DHT22;22382;44.768;17.206;2024-02-23T01:23:06;14.70;59.90
36352;DHT22;22382;44.768;17.206;2024-02-23T01:25:33;14.80;60.00
36352;DHT22;22382;44.768;17.206;2024-02-23T01:28:02;14.70;60.10
36352;DHT22;22382;44.768;17.206;2024-02-23T01:30:30;14.70;60.10
36352;DHT22;22382;44.768;17.206;2024-02-23T01:32:57;14.70;60.20
36352;DHT22;22382;44.768;17.206;2024-02-23T01:35:25;14.60;60.20
36352;DHT22;22382;44.768;17.206;2024-02-23T01:37:53;14.70;60.40
36352;DHT22;22382;44.768;17.206;2024-02-23T01:40:20;14.70;60.50
36352;DHT22;22382;44.768;17.206;2024-02-23T01:42:47;14.60;60.60
36352;DHT22;22382;44.768;17.206;2024-02-23T01:45:15;14.60;61.10
36352;DHT22;22382;44.768;17.206;2024-02-23T01:47:42;14.60;61.20
36352;DHT22;22382;44.768;17.206;2024-02-23T01:50:09;14.60;61.20
36352;DHT22;22382;44.768;17.206;2024-02-23T01:52:39;14.60;61.30
36352;DHT22;22382;44.768;17.206;2024-02-23T01:55:07;14.60;61.60
36352;DHT22;22382;44.768;17.206;2024-02-23T01:57:34;14.60;61.80
36352;DHT22;22382;44.768;17.206;2024-02-23T02:00:17;14.60;62.10
36352;DHT22;22382;44.768;17.206;2024-02-23T02:02:45;14.50;62.10
36352;DHT22;22382;44.768;17.206;2024-02-23T02:05:14;14.50;62.60
36352;DHT22;22382;44.768;17.206;2024-02-23T02:07:42;14.60;62.20
36352;DHT22;22382;44.768;17.206;2024-02-23T02:10:09;14.60;62.20
36352;DHT22;22382;44.768;17.206;2024-02-23T02:12:37;14.50;62.30
36352;DHT22;22382;44.768;17.206;2024-02-23T02:15:05;14.60;62.70
36352;DHT22;22382;44.768;17.206;2024-02-23T02:17:32;14.50;62.90
36352;DHT22;22382;44.768;17.206;2024-02-23T02:20:04;14.50;62.70
36352;DHT22;22382;44.768;17.206;2024-02-23T02:22:33;14.50;62.70
36352;DHT22;22382;44.768;17.206;2024-02-23T02:25:00;14.50;62.70
36352;DHT22;22382;44.768;17.206;2024-02-23T02:27:28;14.40;62.80
36352;DHT22;22382;44.768;17.206;2024-02-23T02:29:55;14.50;62.50
36352;DHT22;22382;44.768;17.206;2024-02-23T02:32:23;14.50;62.80
36352;DHT22;22382;44.768;17.206;2024-02-23T02:34:50;14.40;63.20
36352;DHT22;22382;44.768;17.206;2024-02-23T02:37:18;14.40;62.70
36352;DHT22;22382;44.768;17.206;2024-02-23T02:39:45;14.40;63.20
36352;DHT22;22382;44.768;17.206;2024-02-23T02:42:12;14.30;63.20
36352;DHT22;22382;44.768;17.206;2024-02-23T02:44:39;14.30;63.00
36352;DHT22;22382;44.768;17.206;2024-02-23T02:47:07;14.30;63.00
36352;DHT22;22382;44.768;17.206;2024-02-23T02:49:34;14.30;63.20
36352;DHT22;22382;44.768;17.206;2024-02-23T02:52:01;14.30;62.80
36352;DHT22;22382;44.768;17.206;2024-02-23T02:54:29;14.30;62.60
36352;DHT22;22382;44.768;17.206;2024-02-23T02:56:56;14.30;62.70
36352;DHT22;22382;44.768;17.206;2024-02-23T02:59:23;14.30;63.10
36352;DHT22;22382;44.768;17.206;2024-02-23T03:01:54;14.30;62.80
36352;DHT22;22382;44.768;17.206;2024-02-23T03:04:22;14.30;62.20
36352;DHT22;22382;44.768;17.206;2024-02-23T03:06:49;14.30;62.30
36352;DHT22;22382;44.768;17.206;2024-02-23T03:09:16;14.30;61.90
36352;DHT22;22382;44.768;17.206;2024-02-23T03:11:44;14.30;62.30
36352;DHT22;22382;44.768;17.206;2024-02-23T03:14:11;14.30;62.20
36352;DHT22;22382;44.768;17.206;2024-02-23T03:16:39;14.30;62.30
36352;DHT22;22382;44.768;17.206;2024-02-23T03:19:06;14.30;62.10
36352;DHT22;22382;44.768;17.206;2024-02-23T03:21:35;14.30;62.40
36352;DHT22;22382;44.768;17.206;2024-02-23T03:24:05;14.30;62.30
36352;DHT22;22382;44.768;17.206;2024-02-23T03:26:32;14.20;62.10
36352;DHT22;22382;44.768;17.206;2024-02-23T03:29:00;14.20;62.00
36352;DHT22;22382;44.768;17.206;2024-02-23T03:31:27;14.20;62.20
36352;DHT22;22382;44.768;17.206;2024-02-23T03:33:54;14.30;62.00
36352;DHT22;22382;44.768;17.206;2024-02-23T03:36:22;14.30;62.20
36352;DHT22;22382;44.768;17.206;2024-02-23T03:38:49;14.30;62.10
36352;DHT22;22382;44.768;17.206;2024-02-23T03:41:16;14.20;62.20
36352;DHT22;22382;44.768;17.206;2024-02-23T03:43:43;14.20;62.20
36352;DHT22;22382;44.768;17.206;2024-02-23T03:46:10;14.20;62.00
36352;DHT22;22382;44.768;17.206;2024-02-23T03:48:38;14.20;62.30
36352;DHT22;22382;44.768;17.206;2024-02-23T03:51:06;14.30;61.70
36352;DHT22;22382;44.768;17.206;2024-02-23T03:53:33;14.20;61.90
36352;DHT22;22382;44.768;17.206;2024-02-23T03:56:01;14.20;62.10
36352;DHT22;22382;44.768;17.206;2024-02-23T03:58:28;14.20;61.80
36352;DHT22;22382;44.768;17.206;2024-02-23T04:00:56;14.20;62.20
36352;DHT22;22382;44.768;17.206;2024-02-23T04:03:23;14.10;61.90
36352;DHT22;22382;44.768;17.206;2024-02-23T04:05:50;14.10;61.60
36352;DHT22;22382;44.768;17.206;2024-02-23T04:08:17;14.10;61.80
36352;DHT22;22382;44.768;17.206;2024-02-23T04:10:44;14.10;61.40
36352;DHT22;22382;44.768;17.206;2024-02-23T04:13:12;14.00;61.70
36352;DHT22;22382;44.768;17.206;2024-02-23T04:15:40;14.00;61.70
36352;DHT22;22382;44.768;17.206;2024-02-23T04:18:08;14.00;61.50
36352;DHT22;22382;44.768;17.206;2024-02-23T04:20:35;14.00;61.50
36352;DHT22;22382;44.768;17.206;2024-02-23T04:23:02;14.00;61.50
36352;DHT22;22382;44.768;17.206;2024-02-23T04:25:30;14.00;61.50
36352;DHT22;22382;44.768;17.206;2024-02-23T04:27:57;14.00;61.30
36352;DHT22;22382;44.768;17.206;2024-02-23T04:30:24;14.00;61.40
36352;DHT22;22382;44.768;17.206;2024-02-23T04:32:51;14.00;61.30
36352;DHT22;22382;44.768;17.206;2024-02-23T04:35:18;14.00;61.00
36352;DHT22;22382;44.768;17.206;2024-02-23T04:37:46;14.10;60.50
36352;DHT22;22382;44.768;17.206;2024-02-23T04:40:13;14.10;60.50
36352;DHT22;22382;44.768;17.206;2024-02-23T04:42:40;14.10;60.50
36352;DHT22;22382;44.768;17.206;2024-02-23T04:45:10;14.10;60.30
36352;DHT22;22382;44.768;17.206;2024-02-23T04:47:37;14.10;60.80
36352;DHT22;22382;44.768;17.206;2024-02-23T04:50:06;14.10;60.50
36352;DHT22;22382;44.768;17.206;2024-02-23T04:52:33;14.20;60.30
36352;DHT22;22382;44.768;17.206;2024-02-23T04:55:00;14.20;60.40
36352;DHT22;22382;44.768;17.206;2024-02-23T04:57:28;14.20;60.20
36352;DHT22;22382;44.768;17.206;2024-02-23T04:59:55;14.20;60.60
36352;DHT22;22382;44.768;17.206;2024-02-23T05:02:22;14.20;60.60
36352;DHT22;22382;44.768;17.206;2024-02-23T05:04:49;14.20;60.90
36352;DHT22;22382;44.768;17.206;2024-02-23T05:07:17;14.10;60.90
36352;DHT22;22382;44.768;17.206;2024-02-23T05:09:44;14.20;60.90
36352;DHT22;22382;44.768;17.206;2024-02-23T05:12:11;14.20;60.80
36352;DHT22;22382;44.768;17.206;2024-02-23T05:14:39;14.20;61.20
36352;DHT22;22382;44.768;17.206;2024-02-23T05:17:06;14.20;61.30
36352;DHT22;22382;44.768;17.206;2024-02-23T05:19:33;14.20;61.10
36352;DHT22;22382;44.768;17.206;2024-02-23T05:22:00;14.20;61.30
36352;DHT22;22382;44.768;17.206;2024-02-23T05:24:28;14.20;61.80
36352;DHT22;22382;44.768;17.206;2024-02-23T05:26:55;14.10;61.80
36352;DHT22;22382;44.768;17.206;2024-02-23T05:29:24;14.20;61.70
36352;DHT22;22382;44.768;17.206;2024-02-23T05:31:52;14.10;62.00
36352;DHT22;22382;44.768;17.206;2024-02-23T05:34:20;14.10;61.90
36352;DHT22;22382;44.768;17.206;2024-02-23T05:36:48;14.20;62.10
36352;DHT22;22382;44.768;17.206;2024-02-23T05:39:16;14.20;62.30
36352;DHT22;22382;44.768;17.206;2024-02-23T05:41:44;14.20;62.30
36352;DHT22;22382;44.768;17.206;2024-02-23T05:44:11;14.20;62.90
36352;DHT22;22382;44.768;17.206;2024-02-23T05:46:43;14.10;63.50
36352;DHT22;22382;44.768;17.206;2024-02-23T05:49:11;14.10;64.20
36352;DHT22;22382;44.768;17.206;2024-02-23T05:51:38;14.10;64.60
36352;DHT22;22382;44.768;17.206;2024-02-23T05:54:06;14.00;64.70
36352;DHT22;22382;44.768;17.206;2024-02-23T05:56:33;14.00;65.20
36352;DHT22;22382;44.768;17.206;2024-02-23T05:59:00;14.00;66.00
36352;DHT22;22382;44.768;17.206;2024-02-23T06:01:27;13.90;67.00
36352;DHT22;22382;44.768;17.206;2024-02-23T06:03:55;13.90;68.10
36352;DHT22;22382;44.768;17.206;2024-02-23T06:06:22;13.80;68.10
36352;DHT22;22382;44.768;17.206;2024-02-23T06:08:50;13.70;70.20
36352;DHT22;22382;44.768;17.206;2024-02-23T06:11:17;13.50;71.20
36352;DHT22;22382;44.768;17.206;2024-02-23T06:13:45;13.40;71.90
36352;DHT22;22382;44.768;17.206;2024-02-23T06:16:12;13.30;73.10
36352;DHT22;22382;44.768;17.206;2024-02-23T06:18:40;13.30;73.60
36352;DHT22;22382;44.768;17.206;2024-02-23T06:21:17;13.20;73.50
36352;DHT22;22382;44.768;17.206;2024-02-23T06:23:45;13.10;74.20
36352;DHT22;22382;44.768;17.206;2024-02-23T06:26:12;13.10;73.90
36352;DHT22;22382;44.768;17.206;2024-02-23T06:28:39;13.10;74.90
36352;DHT22;22382;44.768;17.206;2024-02-23T06:31:10;13.00;74.40
36352;DHT22;22382;44.768;17.206;2024-02-23T06:33:37;13.00;74.10
36352;DHT22;22382;44.768;17.206;2024-02-23T06:36:05;12.90;75.20
36352;DHT22;22382;44.768;17.206;2024-02-23T06:38:32;12.90;75.40
36352;DHT22;22382;44.768;17.206;2024-02-23T06:41:00;12.90;75.70
36352;DHT22;22382;44.768;17.206;2024-02-23T06:43:27;12.90;74.30
36352;DHT22;22382;44.768;17.206;2024-02-23T06:45:54;12.90;75.00
36352;DHT22;22382;44.768;17.206;2024-02-23T06:48:23;12.90;75.80
36352;DHT22;22382;44.768;17.206;2024-02-23T06:50:56;12.90;74.40
36352;DHT22;22382;44.768;17.206;2024-02-23T06:53:24;12.90;75.20
36352;DHT22;22382;44.768;17.206;2024-02-23T06:55:52;12.90;75.10
36352;DHT22;22382;44.768;17.206;2024-02-23T06:58:19;12.90;74.50
36352;DHT22;22382;44.768;17.206;2024-02-23T07:00:47;12.90;74.70
36352;DHT22;22382;44.768;17.206;2024-02-23T07:03:14;12.90;74.90
36352;DHT22;22382;44.768;17.206;2024-02-23T07:05:41;12.90;75.20
36352;DHT22;22382;44.768;17.206;2024-02-23T07:08:17;13.00;74.50
36352;DHT22;22382;44.768;17.206;2024-02-23T07:10:45;13.00;74.30
36352;DHT22;22382;44.768;17.206;2024-02-23T07:13:12;13.00;74.60
36352;DHT22;22382;44.768;17.206;2024-02-23T07:15:39;13.10;74.70
36352;DHT22;22382;44.768;17.206;2024-02-23T07:18:06;13.00;75.20
36352;DHT22;22382;44.768;17.206;2024-02-23T07:20:38;13.10;75.20
36352;DHT22;22382;44.768;17.206;2024-02-23T07:23:06;13.10;75.10
36352;DHT22;22382;44.768;17.206;2024-02-23T07:25:34;13.00;75.60
36352;DHT22;22382;44.768;17.206;2024-02-23T07:28:01;13.00;76.20
36352;DHT22;22382;44.768;17.206;2024-02-23T07:30:29;13.00;77.00
36352;DHT22;22382;44.768;17.206;2024-02-23T07:32:56;12.90;78.00
36352;DHT22;22382;44.768;17.206;2024-02-23T07:35:24;12.80;79.00
36352;DHT22;22382;44.768;17.206;2024-02-23T07:37:52;12.70;78.90
36352;DHT22;22382;44.768;17.206;2024-02-23T07:40:19;12.70;79.30
36352;DHT22;22382;44.768;17.206;2024-02-23T07:42:48;12.80;78.40
36352;DHT22;22382;44.768;17.206;2024-02-23T07:45:16;12.90;76.90
36352;DHT22;22382;44.768;17.206;2024-02-23T07:47:43;13.00;76.90
36352;DHT22;22382;44.768;17.206;2024-02-23T07:50:10;13.00;76.30
36352;DHT22;22382;44.768;17.206;2024-02-23T07:52:38;13.10;75.40
36352;DHT22;22382;44.768;17.206;2024-02-23T07:55:06;13.20;74.90
36352;DHT22;22382;44.768;17.206;2024-02-23T07:57:33;13.20;74.20
36352;DHT22;22382;44.768;17.206;2024-02-23T08:00:01;13.40;74.30
36352;DHT22;22382;44.768;17.206;2024-02-23T08:02:30;13.40;74.00
36352;DHT22;22382;44.768;17.206;2024-02-23T08:04:57;13.60;73.80
36352;DHT22;22382;44.768;17.206;2024-02-23T08:07:25;13.70;73.40
36352;DHT22;22382;44.768;17.206;2024-02-23T08:09:52;13.80;72.50
36352;DHT22;22382;44.768;17.206;2024-02-23T08:12:19;13.90;72.20
36352;DHT22;22382;44.768;17.206;2024-02-23T08:14:47;14.00;72.10
36352;DHT22;22382;44.768;17.206;2024-02-23T08:17:16;14.10;71.30
36352;DHT22;22382;44.768;17.206;2024-02-23T08:19:43;14.10;71.00
36352;DHT22;22382;44.768;17.206;2024-02-23T08:22:11;14.10;70.90
36352;DHT22;22382;44.768;17.206;2024-02-23T08:24:38;14.10;70.60
36352;DHT22;22382;44.768;17.206;2024-02-23T08:27:06;14.10;70.90
36352;DHT22;22382;44.768;17.206;2024-02-23T08:29:37;14.00;70.80
36352;DHT22;22382;44.768;17.206;2024-02-23T08:32:05;14.00;72.00
36352;DHT22;22382;44.768;17.206;2024-02-23T08:34:33;13.90;71.90
36352;DHT22;22382;44.768;17.206;2024-02-23T08:37:01;13.90;71.90
36352;DHT22;22382;44.768;17.206;2024-02-23T08:39:29;13.80;71.80
36352;DHT22;22382;44.768;17.206;2024-02-23T08:41:56;13.80;71.50
36352;DHT22;22382;44.768;17.206;2024-02-23T08:44:24;13.80;72.00
36352;DHT22;22382;44.768;17.206;2024-02-23T08:46:51;13.80;71.80
36352;DHT22;22382;44.768;17.206;2024-02-23T08:49:19;13.80;72.80
36352;DHT22;22382;44.768;17.206;2024-02-23T08:51:46;13.80;72.30
36352;DHT22;22382;44.768;17.206;2024-02-23T08:54:13;13.80;71.60
36352;DHT22;22382;44.768;17.206;2024-02-23T08:56:41;13.80;72.40
36352;DHT22;22382;44.768;17.206;2024-02-23T08:59:09;13.70;73.60
36352;DHT22;22382;44.768;17.206;2024-02-23T09:01:37;13.70;72.50
36352;DHT22;22382;44.768;17.206;2024-02-23T09:04:04;13.70;72.50
36352;DHT22;22382;44.768;17.206;2024-02-23T09:06:31;13.70;72.50
36352;DHT22;22382;44.768;17.206;2024-02-23T09:09:05;13.70;72.30
36352;DHT22;22382;44.768;17.206;2024-02-23T09:11:33;13.80;71.50
36352;DHT22;22382;44.768;17.206;2024-02-23T09:14:01;13.80;71.40
36352;DHT22;22382;44.768;17.206;2024-02-23T09:16:28;13.90;70.70
36352;DHT22;22382;44.768;17.206;2024-02-23T09:18:55;13.90;70.80
36352;DHT22;22382;44.768;17.206;2024-02-23T09:21:22;13.90;70.90
36352;DHT22;22382;44.768;17.206;2024-02-23T09:23:50;13.90;71.20
36352;DHT22;22382;44.768;17.206;2024-02-23T09:26:17;14.00;70.90
36352;DHT22;22382;44.768;17.206;2024-02-23T09:28:45;14.00;70.80
36352;DHT22;22382;44.768;17.206;2024-02-23T09:31:12;14.00;70.10
36352;DHT22;22382;44.768;17.206;2024-02-23T09:33:39;14.00;71.20
36352;DHT22;22382;44.768;17.206;2024-02-23T09:36:07;14.00;70.00
36352;DHT22;22382;44.768;17.206;2024-02-23T09:38:34;14.10;69.80
36352;DHT22;22382;44.768;17.206;2024-02-23T09:41:01;14.00;70.40
36352;DHT22;22382;44.768;17.206;2024-02-23T09:43:30;14.00;70.60
36352;DHT22;22382;44.768;17.206;2024-02-23T09:45:59;14.00;70.70
36352;DHT22;22382;44.768;17.206;2024-02-23T09:48:28;14.00;70.40
36352;DHT22;22382;44.768;17.206;2024-02-23T09:50:57;14.00;69.60
36352;DHT22;22382;44.768;17.206;2024-02-23T09:53:26;14.00;68.70
36352;DHT22;22382;44.768;17.206;2024-02-23T09:55:53;14.10;68.60
36352;DHT22;22382;44.768;17.206;2024-02-23T09:58:22;14.20;69.00
36352;DHT22;22382;44.768;17.206;2024-02-23T10:00:51;14.30;68.50
36352;DHT22;22382;44.768;17.206;2024-02-23T10:03:18;14.40;68.50
36352;DHT22;22382;44.768;17.206;2024-02-23T10:05:45;14.40;68.10
36352;DHT22;22382;44.768;17.206;2024-02-23T10:08:16;14.40;68.20
36352;DHT22;22382;44.768;17.206;2024-02-23T10:10:46;14.40;68.10
36352;DHT22;22382;44.768;17.206;2024-02-23T10:13:18;14.40;67.80
36352;DHT22;22382;44.768;17.206;2024-02-23T10:15:48;14.40;67.70
36352;DHT22;22382;44.768;17.206;2024-02-23T10:18:38;14.40;67.90
36352;DHT22;22382;44.768;17.206;2024-02-23T10:21:07;14.50;68.20
36352;DHT22;22382;44.768;17.206;2024-02-23T10:23:34;14.50;68.00
36352;DHT22;22382;44.768;17.206;2024-02-23T10:26:08;14.50;68.20
36352;DHT22;22382;44.768;17.206;2024-02-23T10:28:37;14.50;68.00
36352;DHT22;22382;44.768;17.206;2024-02-23T10:31:06;14.50;68.50
36352;DHT22;22382;44.768;17.206;2024-02-23T10:33:38;14.50;67.90
36352;DHT22;22382;44.768;17.206;2024-02-23T10:36:07;14.60;67.90
36352;DHT22;22382;44.768;17.206;2024-02-23T10:38:38;14.60;68.00
36352;DHT22;22382;44.768;17.206;2024-02-23T10:41:11;14.50;68.10
36352;DHT22;22382;44.768;17.206;2024-02-23T10:43:45;14.60;68.00
36352;DHT22;22382;44.768;17.206;2024-02-23T10:46:14;14.60;67.70
36352;DHT22;22382;44.768;17.206;2024-02-23T10:48:44;14.70;67.70
36352;DHT22;22382;44.768;17.206;2024-02-23T10:51:15;14.80;67.50
36352;DHT22;22382;44.768;17.206;2024-02-23T10:53:49;14.80;67.10
36352;DHT22;22382;44.768;17.206;2024-02-23T10:56:20;14.80;67.20
36352;DHT22;22382;44.768;17.206;2024-02-23T10:58:49;14.80;67.10
36352;DHT22;22382;44.768;17.206;2024-02-23T11:01:16;14.90;67.00
36352;DHT22;22382;44.768;17.206;2024-02-23T11:03:46;14.90;66.60
36352;DHT22;22382;44.768;17.206;2024-02-23T11:06:27;14.90;66.10
36352;DHT22;22382;44.768;17.206;2024-02-23T11:09:05;15.00;65.90
36352;DHT22;22382;44.768;17.206;2024-02-23T11:11:34;15.10;65.30
36352;DHT22;22382;44.768;17.206;2024-02-23T11:14:03;15.10;65.20
36352;DHT22;22382;44.768;17.206;2024-02-23T11:16:39;15.20;64.10
36352;DHT22;22382;44.768;17.206;2024-02-23T11:19:09;15.20;64.50
36352;DHT22;22382;44.768;17.206;2024-02-23T11:21:38;15.20;64.00
36352;DHT22;22382;44.768;17.206;2024-02-23T11:24:06;15.30;64.70
36352;DHT22;22382;44.768;17.206;2024-02-23T11:26:37;15.30;64.10
36352;DHT22;22382;44.768;17.206;2024-02-23T11:29:11;15.30;63.90
36352;DHT22;22382;44.768;17.206;2024-02-23T11:31:45;15.30;63.60
36352;DHT22;22382;44.768;17.206;2024-02-23T11:34:12;15.30;63.30
36352;DHT22;22382;44.768;17.206;2024-02-23T11:36:40;15.30;63.70
36352;DHT22;22382;44.768;17.206;2024-02-23T11:39:10;15.30;63.40
36352;DHT22;22382;44.768;17.206;2024-02-23T11:41:39;15.30;63.40
36352;DHT22;22382;44.768;17.206;2024-02-23T11:44:12;15.30;63.50
36352;DHT22;22382;44.768;17.206;2024-02-23T11:46:41;15.40;63.80
36352;DHT22;22382;44.768;17.206;2024-02-23T11:49:09;15.30;63.00
36352;DHT22;22382;44.768;17.206;2024-02-23T11:51:36;15.30;63.10
36352;DHT22;22382;44.768;17.206;2024-02-23T11:54:04;15.40;63.80
36352;DHT22;22382;44.768;17.206;2024-02-23T11:56:31;15.30;63.00
36352;DHT22;22382;44.768;17.206;2024-02-23T11:58:59;15.30;63.10
36352;DHT22;22382;44.768;17.206;2024-02-23T12:01:30;15.30;62.70
36352;DHT22;22382;44.768;17.206;2024-02-23T12:04:00;15.30;62.30
36352;DHT22;22382;44.768;17.206;2024-02-23T12:06:29;15.30;62.90
36352;DHT22;22382;44.768;17.206;2024-02-23T12:09:01;15.40;63.10
36352;DHT22;22382;44.768;17.206;2024-02-23T12:11:32;15.30;63.30
36352;DHT22;22382;44.768;17.206;2024-02-23T12:14:06;15.40;63.10
36352;DHT22;22382;44.768;17.206;2024-02-23T12:16:35;15.30;63.40
36352;DHT22;22382;44.768;17.206;2024-02-23T12:19:08;15.40;63.60
36352;DHT22;22382;44.768;17.206;2024-02-23T12:21:39;15.40;63.30
36352;DHT22;22382;44.768;17.206;2024-02-23T12:24:13;15.40;63.40
36352;DHT22;22382;44.768;17.206;2024-02-23T12:26:41;15.40;63.70
36352;DHT22;22382;44.768;17.206;2024-02-23T12:29:17;15.40;63.80
36352;DHT22;22382;44.768;17.206;2024-02-23T12:31:44;15.40;63.90
36352;DHT22;22382;44.768;17.206;2024-02-23T12:34:12;15.40;63.90
36352;DHT22;22382;44.768;17.206;2024-02-23T12:36:40;15.40;64.30
36352;DHT22;22382;44.768;17.206;2024-02-23T12:39:07;15.40;64.90
36352;DHT22;22382;44.768;17.206;2024-02-23T12:41:38;15.40;64.70
36352;DHT22;22382;44.768;17.206;2024-02-23T12:44:07;15.40;64.80
36352;DHT22;22382;44.768;17.206;2024-02-23T12:46:37;15.40;64.80
36352;DHT22;22382;44.768;17.206;2024-02-23T12:49:05;15.50;64.90
36352;DHT22;22382;44.768;17.206;2024-02-23T12:51:32;15.50;64.70
36352;DHT22;22382;44.768;17.206;2024-02-23T12:54:00;15.50;64.20
36352;DHT22;22382;44.768;17.206;2024-02-23T12:56:28;15.50;64.60
36352;DHT22;22382;44.768;17.206;2024-02-23T12:58:59;15.50;64.50
36352;DHT22;22382;44.768;17.206;2024-02-23T13:01:26;15.50;64.10
36352;DHT22;22382;44.768;17.206;2024-02-23T13:03:55;15.50;63.90
36352;DHT22;22382;44.768;17.206;2024-02-23T13:06:31;15.50;63.90
36352;DHT22;22382;44.768;17.206;2024-02-23T13:09:01;15.50;63.90
36352;DHT22;22382;44.768;17.206;2024-02-23T13:11:34;15.50;64.00
36352;DHT22;22382;44.768;17.206;2024-02-23T13:14:04;15.50;63.60
36352;DHT22;22382;44.768;17.206;2024-02-23T13:16:32;15.60;63.60
36352;DHT22;22382;44.768;17.206;2024-02-23T13:19:03;15.60;63.30
36352;DHT22;22382;44.768;17.206;2024-02-23T13:21:30;15.60;63.50
36352;DHT22;22382;44.768;17.206;2024-02-23T13:23:59;15.60;63.60
36352;DHT22;22382;44.768;17.206;2024-02-23T13:26:26;15.60;63.50
36352;DHT22;22382;44.768;17.206;2024-02-23T13:28:54;15.60;63.50
36352;DHT22;22382;44.768;17.206;2024-02-23T13:31:21;15.60;63.40
36352;DHT22;22382;44.768;17.206;2024-02-23T13:33:49;15.60;63.40
36352;DHT22;22382;44.768;17.206;2024-02-23T13:36:16;15.60;64.10
36352;DHT22;22382;44.768;17.206;2024-02-23T13:38:43;15.60;63.30
36352;DHT22;22382;44.768;17.206;2024-02-23T13:41:11;15.60;63.60
36352;DHT22;22382;44.768;17.206;2024-02-23T13:43:38;15.50;63.00
36352;DHT22;22382;44.768;17.206;2024-02-23T13:46:06;15.60;64.80
36352;DHT22;22382;44.768;17.206;2024-02-23T13:48:33;15.60;63.20
36352;DHT22;22382;44.768;17.206;2024-02-23T13:51:00;15.60;63.40
36352;DHT22;22382;44.768;17.206;2024-02-23T13:53:31;15.60;63.40
36352;DHT22;22382;44.768;17.206;2024-02-23T13:56:00;15.50;62.80
36352;DHT22;22382;44.768;17.206;2024-02-23T13:58:30;15.50;62.80
36352;DHT22;22382;44.768;17.206;2024-02-23T14:00:58;15.50;62.90
36352;DHT22;22382;44.768;17.206;2024-02-23T14:03:26;15.50;62.80
36352;DHT22;22382;44.768;17.206;2024-02-23T14:05:53;15.40;63.00
36352;DHT22;22382;44.768;17.206;2024-02-23T14:08:21;15.40;63.40
36352;DHT22;22382;44.768;17.206;2024-02-23T14:10:48;15.30;63.20
36352;DHT22;22382;44.768;17.206;2024-02-23T14:13:15;15.30;63.30
36352;DHT22;22382;44.768;17.206;2024-02-23T14:15:43;15.20;63.30
36352;DHT22;22382;44.768;17.206;2024-02-23T14:18:11;15.20;63.40
36352;DHT22;22382;44.768;17.206;2024-02-23T14:20:39;15.20;63.30
36352;DHT22;22382;44.768;17.206;2024-02-23T14:23:07;15.20;63.50
36352;DHT22;22382;44.768;17.206;2024-02-23T14:25:34;15.20;64.00
36352;DHT22;22382;44.768;17.206;2024-02-23T14:28:02;15.20;63.70
36352;DHT22;22382;44.768;17.206;2024-02-23T14:30:29;15.10;63.90
36352;DHT22;22382;44.768;17.206;2024-02-23T14:32:58;15.10;64.00
36352;DHT22;22382;44.768;17.206;2024-02-23T14:35:31;15.10;64.40
36352;DHT22;22382;44.768;17.206;2024-02-23T14:37:58;15.10;64.50
36352;DHT22;22382;44.768;17.206;2024-02-23T14:40:25;15.10;64.90
36352;DHT22;22382;44.768;17.206;2024-02-23T14:42:53;15.00;64.80
36352;DHT22;22382;44.768;17.206;2024-02-23T14:45:20;15.00;65.20
36352;DHT22;22382;44.768;17.206;2024-02-23T14:47:50;15.00;64.60
36352;DHT22;22382;44.768;17.206;2024-02-23T14:50:18;15.00;64.40
36352;DHT22;22382;44.768;17.206;2024-02-23T14:52:45;15.00;64.70
36352;DHT22;22382;44.768;17.206;2024-02-23T14:55:12;15.00;64.60
36352;DHT22;22382;44.768;17.206;2024-02-23T14:57:40;15.00;64.50
36352;DHT22;22382;44.768;17.206;2024-02-23T15:00:08;15.00;65.50
36352;DHT22;22382;44.768;17.206;2024-02-23T15:02:36;15.00;64.40
36352;DHT22;22382;44.768;17.206;2024-02-23T15:05:04;15.10;64.90
36352;DHT22;22382;44.768;17.206;2024-02-23T15:07:33;15.00;64.00
36352;DHT22;22382;44.768;17.206;2024-02-23T15:10:04;15.10;64.60
36352;DHT22;22382;44.768;17.206;2024-02-23T15:12:36;15.10;67.10
36352;DHT22;22382;44.768;17.206;2024-02-23T15:15:04;15.10;66.00
36352;DHT22;22382;44.768;17.206;2024-02-23T15:17:32;15.10;66.30
36352;DHT22;22382;44.768;17.206;2024-02-23T15:20:00;15.00;65.10
36352;DHT22;22382;44.768;17.206;2024-02-23T15:22:29;14.90;66.60